sensor_id;sensor_type;location;lat;lon;timestamp;temperature;humidity
29917;DHT22;16786;49.466;11.068;2023-02-04T00:01:21;5.90;99.90
29917;DHT22;16786;49.466;11.068;2023-02-04T00:03:48;6.00;99.90
29917;DHT22;16786;49.466;11.068;2023-02-04T00:06:15;6.00;99.90
29917;DHT22;16786;49.466;11.068;2023-02-04T00:08:42;6.00;99.90
29917;DHT22;16786;49.466;11.068;2023-02-04T00:11:10;6.00;99.90
29917;DHT22;16786;49.466;11.068;2023-02-04T00:13:37;6.00;99.90
29917;DHT22;16786;49.466;11.068;2023-02-04T00:16:05;6.10;99.90
29917;DHT22;16786;49.466;11.068;2023-02-04T00:18:32;5.90;99.90
29917;DHT22;16786;49.466;11.068;2023-02-04T00:21:00;6.00;99.90
29917;DHT22;16786;49.466;11.068;2023-02-04T00:23:27;6.00;99.90
29917;DHT22;16786;49.466;11.068;2023-02-04T00:25:54;6.00;99.90
29917;DHT22;16786;49.466;11.068;2023-02-04T00:28:25;5.90;99.90
29917;DHT22;16786;49.466;11.068;2023-02-04T00:30:53;6.00;99.90
29917;DHT22;16786;49.466;11.068;2023-02-04T00:33:20;6.00;99.90
29917;DHT22;16786;49.466;11.068;2023-02-04T00:35:47;6.00;99.90
29917;DHT22;16786;49.466;11.068;2023-02-04T00:38:14;6.00;99.90
29917;DHT22;16786;49.466;11.068;2023-02-04T00:40:42;6.00;99.90
29917;DHT22;16786;49.466;11.068;2023-02-04T00:43:09;6.00;99.90
29917;DHT22;16786;49.466;11.068;2023-02-04T00:45:37;6.10;99.90
29917;DHT22;16786;49.466;11.068;2023-02-04T00:48:04;6.00;99.90
29917;DHT22;16786;49.466;11.068;2023-02-04T00:50:32;6.00;99.90
29917;DHT22;16786;49.466;11.068;2023-02-04T00:53:02;6.00;99.90
29917;DHT22;16786;49.466;11.068;2023-02-04T00:55:31;6.10;99.90
29917;DHT22;16786;49.466;11.068;2023-02-04T00:57:58;6.00;99.90
29917;DHT22;16786;49.466;11.068;2023-02-04T01:00:26;5.90;99.90
29917;DHT22;16786;49.466;11.068;2023-02-04T01:02:53;5.90;99.90
29917;DHT22;16786;49.466;11.068;2023-02-04T01:05:20;5.90;99.90
29917;DHT22;16786;49.466;11.068;2023-02-04T01:07:48;5.90;99.90
29917;DHT22;16786;49.466;11.068;2023-02-04T01:10:15;5.90;99.90
29917;DHT22;16786;49.466;11.068;2023-02-04T01:12:44;5.80;99.90
29917;DHT22;16786;49.466;11.068;2023-02-04T01:15:11;5.90;99.90
29917;DHT22;16786;49.466;11.068;2023-02-04T01:17:38;5.90;99.90
29917;DHT22;16786;49.466;11.068;2023-02-04T01:20:09;5.80;99.90
29917;DHT22;16786;49.466;11.068;2023-02-04T01:22:37;5.80;99.90
29917;DHT22;16786;49.466;11.068;2023-02-04T01:25:04;5.80;99.90
29917;DHT22;16786;49.466;11.068;2023-02-04T01:27:42;5.80;99.90
29917;DHT22;16786;49.466;11.068;2023-02-04T01:30:12;5.80;99.90
29917;DHT22;16786;49.466;11.068;2023-02-04T01:32:40;5.80;99.90
29917;DHT22;16786;49.466;11.068;2023-02-04T01:35:07;5.80;99.90
29917;DHT22;16786;49.466;11.068;2023-02-04T01:37:35;5.80;99.90
29917;DHT22;16786;49.466;11.068;2023-02-04T01:40:02;5.80;99.90
29917;DHT22;16786;49.466;11.068;2023-02-04T01:42:30;5.80;99.90
29917;DHT22;16786;49.466;11.068;2023-02-04T01:44:57;5.80;99.90
29917;DHT22;16786;49.466;11.068;2023-02-04T01:47:24;5.80;99.90
29917;DHT22;16786;49.466;11.068;2023-02-04T01:49:53;5.70;99.90
29917;DHT22;16786;49.466;11.068;2023-02-04T01:52:21;5.80;99.90
29917;DHT22;16786;49.466;11.068;2023-02-04T01:54:50;5.80;99.90
29917;DHT22;16786;49.466;11.068;2023-02-04T01:57:18;5.80;99.90
29917;DHT22;16786;49.466;11.068;2023-02-04T01:59:46;5.70;99.90
29917;DHT22;16786;49.466;11.068;2023-02-04T02:05:14;5.60;99.90
29917;DHT22;16786;49.466;11.068;2023-02-04T02:07:42;5.70;99.90
29917;DHT22;16786;49.466;11.068;2023-02-04T02:10:11;5.70;99.90
29917;DHT22;16786;49.466;11.068;2023-02-04T02:12:40;5.70;99.90
29917;DHT22;16786;49.466;11.068;2023-02-04T02:15:08;5.70;99.90
29917;DHT22;16786;49.466;11.068;2023-02-04T02:17:36;5.70;99.90
29917;DHT22;16786;49.466;11.068;2023-02-04T02:20:10;5.70;99.90
29917;DHT22;16786;49.466;11.068;2023-02-04T02:23:01;5.80;99.90
29917;DHT22;16786;49.466;11.068;2023-02-04T02:25:31;5.70;99.90
29917;DHT22;16786;49.466;11.068;2023-02-04T02:28:00;5.70;99.90
29917;DHT22;16786;49.466;11.068;2023-02-04T02:30:29;5.70;99.90
29917;DHT22;16786;49.466;11.068;2023-02-04T02:32:57;5.70;99.90
29917;DHT22;16786;49.466;11.068;2023-02-04T02:35:26;5.70;99.90
29917;DHT22;16786;49.466;11.068;2023-02-04T02:37:55;5.60;99.90
29917;DHT22;16786;49.466;11.068;2023-02-04T02:40:23;5.60;99.90
29917;DHT22;16786;49.466;11.068;2023-02-04T02:42:52;5.50;99.90
29917;DHT22;16786;49.466;11.068;2023-02-04T02:45:25;5.50;99.90
29917;DHT22;16786;49.466;11.068;2023-02-04T02:47:55;5.50;99.90
29917;DHT22;16786;49.466;11.068;2023-02-04T02:50:26;5.50;99.90
29917;DHT22;16786;49.466;11.068;2023-02-04T02:52:56;5.50;99.90
29917;DHT22;16786;49.466;11.068;2023-02-04T02:55:26;5.50;99.90
29917;DHT22;16786;49.466;11.068;2023-02-04T02:57:56;5.50;99.90
29917;DHT22;16786;49.466;11.068;2023-02-04T03:00:29;5.40;99.90
29917;DHT22;16786;49.466;11.068;2023-02-04T03:03:17;5.40;99.90
29917;DHT22;16786;49.466;11.068;2023-02-04T03:05:49;5.40;99.90
29917;DHT22;16786;49.466;11.068;2023-02-04T03:08:18;5.50;99.90
29917;DHT22;16786;49.466;11.068;2023-02-04T03:10:46;5.40;99.90
29917;DHT22;16786;49.466;11.068;2023-02-04T03:13:15;5.40;99.90
29917;DHT22;16786;49.466;11.068;2023-02-04T03:15:45;5.30;99.90
29917;DHT22;16786;49.466;11.068;2023-02-04T03:18:18;5.30;99.90
29917;DHT22;16786;49.466;11.068;2023-02-04T03:20:47;5.30;99.90
29917;DHT22;16786;49.466;11.068;2023-02-04T03:23:15;5.30;99.90
29917;DHT22;16786;49.466;11.068;2023-02-04T03:25:43;5.20;99.90
29917;DHT22;16786;49.466;11.068;2023-02-04T03:28:10;5.20;99.90
29917;DHT22;16786;49.466;11.068;2023-02-04T03:30:38;5.10;99.90
29917;DHT22;16786;49.466;11.068;2023-02-04T03:33:05;5.10;99.90
29917;DHT22;16786;49.466;11.068;2023-02-04T03:35:32;5.20;99.90
29917;DHT22;16786;49.466;11.068;2023-02-04T03:37:59;5.20;99.90
29917;DHT22;16786;49.466;11.068;2023-02-04T03:40:27;5.20;99.90
29917;DHT22;16786;49.466;11.068;2023-02-04T03:42:56;5.20;99.90
29917;DHT22;16786;49.466;11.068;2023-02-04T03:45:23;5.20;99.90
29917;DHT22;16786;49.466;11.068;2023-02-04T03:47:52;5.20;99.90
29917;DHT22;16786;49.466;11.068;2023-02-04T03:50:20;5.30;99.90
29917;DHT22;16786;49.466;11.068;2023-02-04T03:52:47;5.30;99.90
29917;DHT22;16786;49.466;11.068;2023-02-04T03:55:16;5.20;99.90
29917;DHT22;16786;49.466;11.068;2023-02-04T03:57:43;5.20;99.90
29917;DHT22;16786;49.466;11.068;2023-02-04T04:00:12;5.10;99.90
29917;DHT22;16786;49.466;11.068;2023-02-04T04:02:40;5.00;99.90
29917;DHT22;16786;49.466;11.068;2023-02-04T04:05:08;5.00;99.90
29917;DHT22;16786;49.466;11.068;2023-02-04T04:07:36;5.00;99.90
29917;DHT22;16786;49.466;11.068;2023-02-04T04:10:04;5.00;99.90
29917;DHT22;16786;49.466;11.068;2023-02-04T04:12:31;5.00;99.90
29917;DHT22;16786;49.466;11.068;2023-02-04T04:14:58;5.00;99.90
29917;DHT22;16786;49.466;11.068;2023-02-04T04:17:25;5.00;99.90
29917;DHT22;16786;49.466;11.068;2023-02-04T04:19:53;5.00;99.90
29917;DHT22;16786;49.466;11.068;2023-02-04T04:22:20;4.90;99.90
29917;DHT22;16786;49.466;11.068;2023-02-04T04:24:47;4.90;99.90
29917;DHT22;16786;49.466;11.068;2023-02-04T04:27:14;4.80;99.90
29917;DHT22;16786;49.466;11.068;2023-02-04T04:29:42;4.70;99.90
29917;DHT22;16786;49.466;11.068;2023-02-04T04:32:09;4.70;99.90
29917;DHT22;16786;49.466;11.068;2023-02-04T04:34:36;4.60;99.90
29917;DHT22;16786;49.466;11.068;2023-02-04T04:37:04;4.70;99.90
29917;DHT22;16786;49.466;11.068;2023-02-04T04:39:31;4.70;99.90
29917;DHT22;16786;49.466;11.068;2023-02-04T04:41:58;4.80;99.90
29917;DHT22;16786;49.466;11.068;2023-02-04T04:44:25;4.80;99.90
29917;DHT22;16786;49.466;11.068;2023-02-04T04:46:53;4.80;99.90
29917;DHT22;16786;49.466;11.068;2023-02-04T04:49:20;4.80;99.90
29917;DHT22;16786;49.466;11.068;2023-02-04T04:51:47;4.90;99.90
29917;DHT22;16786;49.466;11.068;2023-02-04T04:54:15;4.90;99.90
29917;DHT22;16786;49.466;11.068;2023-02-04T04:56:42;4.90;99.90
29917;DHT22;16786;49.466;11.068;2023-02-04T04:59:09;4.90;99.90
29917;DHT22;16786;49.466;11.068;2023-02-04T05:01:36;4.90;99.90
29917;DHT22;16786;49.466;11.068;2023-02-04T05:04:04;4.90;99.90
29917;DHT22;16786;49.466;11.068;2023-02-04T05:06:31;4.90;99.90
29917;DHT22;16786;49.466;11.068;2023-02-04T05:08:58;4.90;99.90
29917;DHT22;16786;49.466;11.068;2023-02-04T05:11:26;4.90;99.90
29917;DHT22;16786;49.466;11.068;2023-02-04T05:13:53;4.90;99.90
29917;DHT22;16786;49.466;11.068;2023-02-04T05:16:20;4.80;99.90
29917;DHT22;16786;49.466;11.068;2023-02-04T05:18:47;4.80;99.90
29917;DHT22;16786;49.466;11.068;2023-02-04T05:21:15;4.80;99.90
29917;DHT22;16786;49.466;11.068;2023-02-04T05:23:42;4.80;99.90
29917;DHT22;16786;49.466;11.068;2023-02-04T05:26:09;4.80;99.90
29917;DHT22;16786;49.466;11.068;2023-02-04T05:28:41;4.80;99.90
29917;DHT22;16786;49.466;11.068;2023-02-04T05:31:08;4.80;99.90
29917;DHT22;16786;49.466;11.068;2023-02-04T05:33:36;4.80;99.90
29917;DHT22;16786;49.466;11.068;2023-02-04T05:36:03;4.80;99.90
29917;DHT22;16786;49.466;11.068;2023-02-04T05:38:30;4.70;99.90
29917;DHT22;16786;49.466;11.068;2023-02-04T05:40:57;4.70;99.90
29917;DHT22;16786;49.466;11.068;2023-02-04T05:43:25;4.70;99.90
29917;DHT22;16786;49.466;11.068;2023-02-04T05:45:52;4.70;99.90
29917;DHT22;16786;49.466;11.068;2023-02-04T05:48:19;4.60;99.90
29917;DHT22;16786;49.466;11.068;2023-02-04T05:50:46;4.60;99.90
29917;DHT22;16786;49.466;11.068;2023-02-04T05:53:13;4.60;99.90
29917;DHT22;16786;49.466;11.068;2023-02-04T05:55:41;4.60;99.90
29917;DHT22;16786;49.466;11.068;2023-02-04T05:58:08;4.50;99.90
29917;DHT22;16786;49.466;11.068;2023-02-04T06:00:35;4.40;99.90
29917;DHT22;16786;49.466;11.068;2023-02-04T06:03:03;4.40;99.90
29917;DHT22;16786;49.466;11.068;2023-02-04T06:05:31;4.30;99.90
29917;DHT22;16786;49.466;11.068;2023-02-04T06:07:58;4.30;99.90
29917;DHT22;16786;49.466;11.068;2023-02-04T06:10:25;4.30;99.90
29917;DHT22;16786;49.466;11.068;2023-02-04T06:12:52;4.20;99.90
29917;DHT22;16786;49.466;11.068;2023-02-04T06:15:20;4.10;99.90
29917;DHT22;16786;49.466;11.068;2023-02-04T06:17:47;4.10;99.90
29917;DHT22;16786;49.466;11.068;2023-02-04T06:20:14;4.00;99.90
29917;DHT22;16786;49.466;11.068;2023-02-04T06:22:41;3.90;99.90
29917;DHT22;16786;49.466;11.068;2023-02-04T06:25:09;3.90;99.90
29917;DHT22;16786;49.466;11.068;2023-02-04T06:27:36;3.90;99.90
29917;DHT22;16786;49.466;11.068;2023-02-04T06:30:03;3.90;99.90
29917;DHT22;16786;49.466;11.068;2023-02-04T06:32:31;3.90;99.90
29917;DHT22;16786;49.466;11.068;2023-02-04T06:34:58;3.90;99.90
29917;DHT22;16786;49.466;11.068;2023-02-04T06:37:25;3.90;99.90
29917;DHT22;16786;49.466;11.068;2023-02-04T06:39:53;3.90;99.90
29917;DHT22;16786;49.466;11.068;2023-02-04T06:42:20;3.90;99.90
29917;DHT22;16786;49.466;11.068;2023-02-04T06:44:47;3.80;99.90
29917;DHT22;16786;49.466;11.068;2023-02-04T06:47:15;3.60;99.90
29917;DHT22;16786;49.466;11.068;2023-02-04T06:49:42;3.50;99.90
29917;DHT22;16786;49.466;11.068;2023-02-04T06:52:09;3.40;99.90
29917;DHT22;16786;49.466;11.068;2023-02-04T06:54:37;3.20;99.90
29917;DHT22;16786;49.466;11.068;2023-02-04T06:57:04;3.10;99.90
29917;DHT22;16786;49.466;11.068;2023-02-04T06:59:35;3.00;99.90
29917;DHT22;16786;49.466;11.068;2023-02-04T07:02:04;3.00;99.90
29917;DHT22;16786;49.466;11.068;2023-02-04T07:04:33;3.00;99.90
29917;DHT22;16786;49.466;11.068;2023-02-04T07:07:01;3.00;99.90
29917;DHT22;16786;49.466;11.068;2023-02-04T07:09:28;3.00;99.90
29917;DHT22;16786;49.466;11.068;2023-02-04T07:11:56;3.00;99.90
29917;DHT22;16786;49.466;11.068;2023-02-04T07:14:23;2.90;99.90
29917;DHT22;16786;49.466;11.068;2023-02-04T07:16:50;3.00;99.90
29917;DHT22;16786;49.466;11.068;2023-02-04T07:19:17;3.00;99.90
29917;DHT22;16786;49.466;11.068;2023-02-04T07:21:47;3.00;99.90
29917;DHT22;16786;49.466;11.068;2023-02-04T07:24:14;3.00;99.90
29917;DHT22;16786;49.466;11.068;2023-02-04T07:26:41;3.10;99.90
29917;DHT22;16786;49.466;11.068;2023-02-04T07:29:08;3.10;99.90
29917;DHT22;16786;49.466;11.068;2023-02-04T07:31:46;3.10;99.90
29917;DHT22;16786;49.466;11.068;2023-02-04T07:34:17;3.10;99.90
29917;DHT22;16786;49.466;11.068;2023-02-04T07:36:44;3.20;99.90
29917;DHT22;16786;49.466;11.068;2023-02-04T07:39:11;3.20;99.90
29917;DHT22;16786;49.466;11.068;2023-02-04T07:41:39;3.20;99.90
29917;DHT22;16786;49.466;11.068;2023-02-04T07:44:06;3.20;99.90
29917;DHT22;16786;49.466;11.068;2023-02-04T07:46:33;3.20;99.90
29917;DHT22;16786;49.466;11.068;2023-02-04T07:49:01;3.10;99.90
29917;DHT22;16786;49.466;11.068;2023-02-04T07:51:28;3.20;99.90
29917;DHT22;16786;49.466;11.068;2023-02-04T07:53:55;3.20;99.90
29917;DHT22;16786;49.466;11.068;2023-02-04T07:56:23;3.30;99.90
29917;DHT22;16786;49.466;11.068;2023-02-04T07:58:50;3.40;99.90
29917;DHT22;16786;49.466;11.068;2023-02-04T08:01:18;3.40;99.90
29917;DHT22;16786;49.466;11.068;2023-02-04T08:03:45;3.50;99.90
29917;DHT22;16786;49.466;11.068;2023-02-04T08:06:12;3.60;99.90
29917;DHT22;16786;49.466;11.068;2023-02-04T08:08:40;3.70;99.90
29917;DHT22;16786;49.466;11.068;2023-02-04T08:11:07;3.70;99.90
29917;DHT22;16786;49.466;11.068;2023-02-04T08:13:34;3.80;99.90
29917;DHT22;16786;49.466;11.068;2023-02-04T08:16:01;4.00;99.90
29917;DHT22;16786;49.466;11.068;2023-02-04T08:18:29;4.10;99.90
29917;DHT22;16786;49.466;11.068;2023-02-04T08:20:56;4.20;99.90
29917;DHT22;16786;49.466;11.068;2023-02-04T08:23:25;4.40;99.90
29917;DHT22;16786;49.466;11.068;2023-02-04T08:25:52;4.40;99.90
29917;DHT22;16786;49.466;11.068;2023-02-04T08:28:19;4.50;99.90
29917;DHT22;16786;49.466;11.068;2023-02-04T08:30:46;4.70;99.90
29917;DHT22;16786;49.466;11.068;2023-02-04T08:33:14;4.70;99.90
29917;DHT22;16786;49.466;11.068;2023-02-04T08:35:41;4.80;99.90
29917;DHT22;16786;49.466;11.068;2023-02-04T08:38:08;4.70;99.90
29917;DHT22;16786;49.466;11.068;2023-02-04T08:40:36;4.80;99.90
29917;DHT22;16786;49.466;11.068;2023-02-04T08:43:03;4.90;99.90
29917;DHT22;16786;49.466;11.068;2023-02-04T08:45:30;5.00;99.90
29917;DHT22;16786;49.466;11.068;2023-02-04T08:47:58;5.00;99.90
29917;DHT22;16786;49.466;11.068;2023-02-04T08:50:25;5.00;99.90
29917;DHT22;16786;49.466;11.068;2023-02-04T08:52:54;4.90;99.90
29917;DHT22;16786;49.466;11.068;2023-02-04T08:55:22;4.90;99.90
29917;DHT22;16786;49.466;11.068;2023-02-04T08:57:49;5.00;99.90
29917;DHT22;16786;49.466;11.068;2023-02-04T09:00:16;5.10;99.90
29917;DHT22;16786;49.466;11.068;2023-02-04T09:02:44;5.20;99.90
29917;DHT22;16786;49.466;11.068;2023-02-04T09:05:12;5.30;99.90
29917;DHT22;16786;49.466;11.068;2023-02-04T09:07:39;5.30;99.90
29917;DHT22;16786;49.466;11.068;2023-02-04T09:10:06;5.40;99.90
29917;DHT22;16786;49.466;11.068;2023-02-04T09:12:34;5.40;99.90
29917;DHT22;16786;49.466;11.068;2023-02-04T09:15:01;5.50;99.90
29917;DHT22;16786;49.466;11.068;2023-02-04T09:17:28;5.60;99.90
29917;DHT22;16786;49.466;11.068;2023-02-04T09:19:56;5.70;99.90
29917;DHT22;16786;49.466;11.068;2023-02-04T09:22:23;5.70;99.90
29917;DHT22;16786;49.466;11.068;2023-02-04T09:24:50;5.90;99.90
29917;DHT22;16786;49.466;11.068;2023-02-04T09:27:17;5.80;99.90
29917;DHT22;16786;49.466;11.068;2023-02-04T09:29:45;5.80;99.90
29917;DHT22;16786;49.466;11.068;2023-02-04T09:32:12;5.90;99.90
29917;DHT22;16786;49.466;11.068;2023-02-04T09:34:40;5.90;99.90
29917;DHT22;16786;49.466;11.068;2023-02-04T09:37:07;5.90;99.90
29917;DHT22;16786;49.466;11.068;2023-02-04T09:39:34;6.10;99.90
29917;DHT22;16786;49.466;11.068;2023-02-04T09:42:02;6.10;99.90
29917;DHT22;16786;49.466;11.068;2023-02-04T09:44:29;6.00;99.90
29917;DHT22;16786;49.466;11.068;2023-02-04T09:46:58;6.00;99.90
29917;DHT22;16786;49.466;11.068;2023-02-04T09:49:27;6.10;99.90
29917;DHT22;16786;49.466;11.068;2023-02-04T09:51:54;6.00;99.90
29917;DHT22;16786;49.466;11.068;2023-02-04T09:54:22;6.20;99.90
29917;DHT22;16786;49.466;11.068;2023-02-04T09:56:51;6.20;99.90
29917;DHT22;16786;49.466;11.068;2023-02-04T09:59:21;6.10;99.90
29917;DHT22;16786;49.466;11.068;2023-02-04T10:02:03;6.20;99.90
29917;DHT22;16786;49.466;11.068;2023-02-04T10:04:31;6.20;99.90
29917;DHT22;16786;49.466;11.068;2023-02-04T10:06:59;6.00;99.90
29917;DHT22;16786;49.466;11.068;2023-02-04T10:09:26;5.90;99.90
29917;DHT22;16786;49.466;11.068;2023-02-04T10:11:53;5.90;99.90
29917;DHT22;16786;49.466;11.068;2023-02-04T10:14:22;5.80;99.90
29917;DHT22;16786;49.466;11.068;2023-02-04T10:16:57;5.80;99.90
29917;DHT22;16786;49.466;11.068;2023-02-04T10:19:28;5.60;99.90
29917;DHT22;16786;49.466;11.068;2023-02-04T10:21:56;5.50;99.90
29917;DHT22;16786;49.466;11.068;2023-02-04T10:24:25;5.50;99.90
29917;DHT22;16786;49.466;11.068;2023-02-04T10:26:53;5.60;99.90
29917;DHT22;16786;49.466;11.068;2023-02-04T10:29:22;5.70;99.90
29917;DHT22;16786;49.466;11.068;2023-02-04T10:31:52;5.90;99.90
29917;DHT22;16786;49.466;11.068;2023-02-04T10:34:39;6.10;99.90
29917;DHT22;16786;49.466;11.068;2023-02-04T10:37:20;6.20;99.90
29917;DHT22;16786;49.466;11.068;2023-02-04T10:39:48;6.30;99.90
29917;DHT22;16786;49.466;11.068;2023-02-04T10:42:24;6.50;99.90
29917;DHT22;16786;49.466;11.068;2023-02-04T10:44:51;6.50;99.90
29917;DHT22;16786;49.466;11.068;2023-02-04T10:47:21;6.80;99.90
29917;DHT22;16786;49.466;11.068;2023-02-04T10:50:14;7.00;99.90
29917;DHT22;16786;49.466;11.068;2023-02-04T10:52:45;7.30;99.90
29917;DHT22;16786;49.466;11.068;2023-02-04T10:55:18;7.30;99.90
29917;DHT22;16786;49.466;11.068;2023-02-04T10:57:47;7.40;99.90
29917;DHT22;16786;49.466;11.068;2023-02-04T11:00:19;7.20;99.90
29917;DHT22;16786;49.466;11.068;2023-02-04T11:03:05;7.20;99.90
29917;DHT22;16786;49.466;11.068;2023-02-04T11:05:35;7.10;99.90
29917;DHT22;16786;49.466;11.068;2023-02-04T11:08:16;7.10;99.90
29917;DHT22;16786;49.466;11.068;2023-02-04T11:10:44;7.00;99.90
29917;DHT22;16786;49.466;11.068;2023-02-04T11:13:22;6.90;99.90
29917;DHT22;16786;49.466;11.068;2023-02-04T11:21:20;6.60;99.90
29917;DHT22;16786;49.466;11.068;2023-02-04T11:23:47;6.70;99.90
29917;DHT22;16786;49.466;11.068;2023-02-04T11:26:31;6.60;99.90
29917;DHT22;16786;49.466;11.068;2023-02-04T11:39:47;7.20;99.90
29917;DHT22;16786;49.466;11.068;2023-02-04T11:42:21;7.30;99.90
29917;DHT22;16786;49.466;11.068;2023-02-04T11:44:59;7.40;99.90
29917;DHT22;16786;49.466;11.068;2023-02-04T11:47:32;7.30;99.90
29917;DHT22;16786;49.466;11.068;2023-02-04T11:50:14;7.20;99.90
29917;DHT22;16786;49.466;11.068;2023-02-04T11:52:43;7.20;99.90
29917;DHT22;16786;49.466;11.068;2023-02-04T11:55:11;7.10;99.90
29917;DHT22;16786;49.466;11.068;2023-02-04T11:57:40;7.00;99.90
29917;DHT22;16786;49.466;11.068;2023-02-04T12:00:17;7.00;99.90
29917;DHT22;16786;49.466;11.068;2023-02-04T12:02:53;6.90;99.90
29917;DHT22;16786;49.466;11.068;2023-02-04T12:05:21;6.90;99.90
29917;DHT22;16786;49.466;11.068;2023-02-04T12:08:09;7.10;99.90
29917;DHT22;16786;49.466;11.068;2023-02-04T12:10:37;7.10;99.90
29917;DHT22;16786;49.466;11.068;2023-02-04T12:13:15;7.00;99.90
29917;DHT22;16786;49.466;11.068;2023-02-04T12:15:57;7.00;99.90
29917;DHT22;16786;49.466;11.068;2023-02-04T12:18:24;6.80;99.90
29917;DHT22;16786;49.466;11.068;2023-02-04T12:20:55;6.80;99.90
29917;DHT22;16786;49.466;11.068;2023-02-04T12:23:23;6.70;99.90
29917;DHT22;16786;49.466;11.068;2023-02-04T12:25:51;6.70;99.90
29917;DHT22;16786;49.466;11.068;2023-02-04T12:28:18;6.70;99.90
29917;DHT22;16786;49.466;11.068;2023-02-04T12:30:46;6.60;99.90
29917;DHT22;16786;49.466;11.068;2023-02-04T12:33:14;6.40;99.90
29917;DHT22;16786;49.466;11.068;2023-02-04T12:35:41;6.40;99.90
29917;DHT22;16786;49.466;11.068;2023-02-04T12:38:08;6.30;99.90
29917;DHT22;16786;49.466;11.068;2023-02-04T12:40:36;6.30;99.90
29917;DHT22;16786;49.466;11.068;2023-02-04T12:43:04;6.30;99.90
29917;DHT22;16786;49.466;11.068;2023-02-04T12:45:32;6.30;99.90
29917;DHT22;16786;49.466;11.068;2023-02-04T12:48:00;6.40;99.90
29917;DHT22;16786;49.466;11.068;2023-02-04T12:50:28;6.60;99.90
29917;DHT22;16786;49.466;11.068;2023-02-04T12:52:57;6.70;99.90
29917;DHT22;16786;49.466;11.068;2023-02-04T12:55:26;6.90;99.90
29917;DHT22;16786;49.466;11.068;2023-02-04T12:57:54;6.90;99.90
29917;DHT22;16786;49.466;11.068;2023-02-04T13:00:23;6.90;99.90
29917;DHT22;16786;49.466;11.068;2023-02-04T13:02:50;6.90;99.90
29917;DHT22;16786;49.466;11.068;2023-02-04T13:05:17;7.00;99.90
29917;DHT22;16786;49.466;11.068;2023-02-04T13:07:45;7.00;99.90
29917;DHT22;16786;49.466;11.068;2023-02-04T13:10:13;7.00;99.90
29917;DHT22;16786;49.466;11.068;2023-02-04T13:12:40;7.00;99.90
29917;DHT22;16786;49.466;11.068;2023-02-04T13:15:09;7.20;99.90
29917;DHT22;16786;49.466;11.068;2023-02-04T13:17:37;7.40;99.90
29917;DHT22;16786;49.466;11.068;2023-02-04T13:20:05;7.60;99.90
29917;DHT22;16786;49.466;11.068;2023-02-04T13:22:33;7.70;99.90
29917;DHT22;16786;49.466;11.068;2023-02-04T13:25:00;7.80;99.90
29917;DHT22;16786;49.466;11.068;2023-02-04T13:27:30;8.00;99.90
29917;DHT22;16786;49.466;11.068;2023-02-04T13:29:57;8.20;99.90
29917;DHT22;16786;49.466;11.068;2023-02-04T13:32:25;8.10;99.90
29917;DHT22;16786;49.466;11.068;2023-02-04T13:34:52;8.20;99.90
29917;DHT22;16786;49.466;11.068;2023-02-04T13:37:19;8.10;99.90
29917;DHT22;16786;49.466;11.068;2023-02-04T13:39:46;8.60;99.90
29917;DHT22;16786;49.466;11.068;2023-02-04T13:42:14;9.40;99.90
29917;DHT22;16786;49.466;11.068;2023-02-04T13:44:41;10.60;99.90
29917;DHT22;16786;49.466;11.068;2023-02-04T13:47:08;11.70;99.90
29917;DHT22;16786;49.466;11.068;2023-02-04T13:49:36;12.20;99.90
29917;DHT22;16786;49.466;11.068;2023-02-04T13:52:03;12.10;99.90
29917;DHT22;16786;49.466;11.068;2023-02-04T13:54:30;11.70;99.90
29917;DHT22;16786;49.466;11.068;2023-02-04T13:56:58;11.10;99.90
29917;DHT22;16786;49.466;11.068;2023-02-04T13:59:25;10.30;99.90
29917;DHT22;16786;49.466;11.068;2023-02-04T14:01:52;9.60;99.90
29917;DHT22;16786;49.466;11.068;2023-02-04T14:04:20;8.80;99.90
29917;DHT22;16786;49.466;11.068;2023-02-04T14:06:47;8.90;99.90
29917;DHT22;16786;49.466;11.068;2023-02-04T14:09:14;8.60;99.90
29917;DHT22;16786;49.466;11.068;2023-02-04T14:11:42;8.50;99.90
29917;DHT22;16786;49.466;11.068;2023-02-04T14:14:09;8.50;99.90
29917;DHT22;16786;49.466;11.068;2023-02-04T14:16:36;8.50;99.90
29917;DHT22;16786;49.466;11.068;2023-02-04T14:19:04;9.20;99.90
29917;DHT22;16786;49.466;11.068;2023-02-04T14:21:32;11.50;99.90
29917;DHT22;16786;49.466;11.068;2023-02-04T14:24:00;12.50;99.90
29917;DHT22;16786;49.466;11.068;2023-02-04T14:26:27;11.70;99.90
29917;DHT22;16786;49.466;11.068;2023-02-04T14:28:54;10.90;99.90
29917;DHT22;16786;49.466;11.068;2023-02-04T14:31:22;9.90;99.90
29917;DHT22;16786;49.466;11.068;2023-02-04T14:33:49;9.70;99.90
29917;DHT22;16786;49.466;11.068;2023-02-04T14:36:16;9.80;99.90
29917;DHT22;16786;49.466;11.068;2023-02-04T14:38:43;9.30;99.90
29917;DHT22;16786;49.466;11.068;2023-02-04T14:41:11;9.10;99.90
29917;DHT22;16786;49.466;11.068;2023-02-04T14:43:42;8.90;99.90
29917;DHT22;16786;49.466;11.068;2023-02-04T14:46:09;8.70;99.90
29917;DHT22;16786;49.466;11.068;2023-02-04T14:48:36;9.20;99.90
29917;DHT22;16786;49.466;11.068;2023-02-04T14:51:04;10.50;99.90
29917;DHT22;16786;49.466;11.068;2023-02-04T14:53:31;11.80;99.90
29917;DHT22;16786;49.466;11.068;2023-02-04T14:55:59;11.50;99.90
29917;DHT22;16786;49.466;11.068;2023-02-04T14:58:26;10.60;99.90
29917;DHT22;16786;49.466;11.068;2023-02-04T15:00:54;9.90;99.90
29917;DHT22;16786;49.466;11.068;2023-02-04T15:03:21;9.30;99.90
29917;DHT22;16786;49.466;11.068;2023-02-04T15:05:48;8.70;99.90
29917;DHT22;16786;49.466;11.068;2023-02-04T15:08:16;8.30;99.90
29917;DHT22;16786;49.466;11.068;2023-02-04T15:10:43;8.00;99.90
29917;DHT22;16786;49.466;11.068;2023-02-04T15:13:11;7.70;99.90
29917;DHT22;16786;49.466;11.068;2023-02-04T15:15:38;7.60;99.90
29917;DHT22;16786;49.466;11.068;2023-02-04T15:18:05;7.20;99.90
29917;DHT22;16786;49.466;11.068;2023-02-04T15:20:33;7.10;99.90
29917;DHT22;16786;49.466;11.068;2023-02-04T15:23:00;6.90;99.90
29917;DHT22;16786;49.466;11.068;2023-02-04T15:25:28;6.60;99.90
29917;DHT22;16786;49.466;11.068;2023-02-04T15:27:55;6.50;99.90
29917;DHT22;16786;49.466;11.068;2023-02-04T15:30:22;6.40;99.90
29917;DHT22;16786;49.466;11.068;2023-02-04T15:32:49;6.30;99.90
29917;DHT22;16786;49.466;11.068;2023-02-04T15:35:17;6.00;99.90
29917;DHT22;16786;49.466;11.068;2023-02-04T15:37:44;6.10;99.90
29917;DHT22;16786;49.466;11.068;2023-02-04T15:40:11;7.10;99.90
29917;DHT22;16786;49.466;11.068;2023-02-04T15:42:39;8.40;99.90
29917;DHT22;16786;49.466;11.068;2023-02-04T15:45:07;9.50;99.90
29917;DHT22;16786;49.466;11.068;2023-02-04T15:47:37;9.20;99.90
29917;DHT22;16786;49.466;11.068;2023-02-04T15:50:04;8.90;99.90
29917;DHT22;16786;49.466;11.068;2023-02-04T15:52:34;9.70;99.90
29917;DHT22;16786;49.466;11.068;2023-02-04T15:55:01;10.70;99.90
29917;DHT22;16786;49.466;11.068;2023-02-04T15:57:29;11.40;99.90